Time;durP1;ratioP1;P1;durP2;ratioP2;P2;SDS_P1;SDS_P2;PMS_P1;PMS_P2;Temp;Humidity;BMP_temperature;BMP_pressure;BME280_temperature;BME280_humidity;BME280_pressure;Samples;Min_cycle;Max_cycle;Signal;HPM_P1;HPM_P2
2022/10/07 00:02:30;;;;;;;8.70;3.80;;;9.20;99.90;;;;;;5264141;28;20206;-49
2022/10/07 00:05:00;;;;;;;8.90;3.63;;;9.10;99.90;;;;;;5250105;28;20189;-49
2022/10/07 00:07:31;;;;;;;7.60;3.37;;;9.10;99.90;;;;;;5263234;28;20245;-51
2022/10/07 00:10:03;;;;;;;6.80;4.20;;;9.10;99.90;;;;;;5272352;28;20174;-49
2022/10/07 00:12:33;;;;;;;10.17;4.10;;;9.10;99.90;;;;;;5266816;28;20681;-49
2022/10/07 00:15:05;;;;;;;6.50;3.60;;;9.10;99.90;;;;;;5283660;28;20462;-50
2022/10/07 00:17:35;;;;;;;3.50;3.20;;;9.10;99.90;;;;;;5251647;28;20213;-48
2022/10/07 00:20:06;;;;;;;4.60;3.10;;;9.00;99.90;;;;;;5266297;28;21043;-50
2022/10/07 00:22:37;;;;;;;4.73;3.57;;;9.00;99.90;;;;;;5265657;28;20700;-49
2022/10/07 00:25:08;;;;;;;10.30;3.50;;;8.90;99.90;;;;;;5269269;28;20435;-50
2022/10/07 00:27:39;;;;;;;10.20;3.50;;;8.90;99.90;;;;;;5267798;28;20664;-51
2022/10/07 00:30:10;;;;;;;5.50;3.73;;;8.90;99.90;;;;;;5265945;28;20439;-50
2022/10/07 00:32:40;;;;;;;6.93;4.27;;;8.90;99.90;;;;;;5251123;28;20601;-50
2022/10/07 00:35:11;;;;;;;5.13;4.07;;;8.90;99.90;;;;;;5269277;28;20517;-51
2022/10/07 00:37:42;;;;;;;13.60;4.30;;;8.90;99.90;;;;;;5250495;28;20523;-51
2022/10/07 00:40:13;;;;;;;10.10;4.40;;;8.90;99.90;;;;;;5264829;28;20444;-50
2022/10/07 00:42:43;;;;;;;8.10;2.80;;;8.90;99.90;;;;;;5248544;28;20292;-49
2022/10/07 00:45:18;;;;;;;13.20;4.17;;;8.90;99.90;;;;;;5245788;28;20634;-49
2022/10/07 00:47:50;;;;;;;8.23;4.20;;;8.90;99.90;;;;;;5250782;28;20224;-48
2022/10/07 00:50:26;;;;;;;12.03;3.77;;;8.80;99.90;;;;;;5247417;28;20440;-51
2022/10/07 00:53:00;;;;;;;6.93;3.40;;;8.80;99.90;;;;;;5245722;28;20990;-49
2022/10/07 00:55:31;;;;;;;6.50;3.47;;;8.80;99.90;;;;;;5256510;28;20870;-51
2022/10/07 00:58:08;;;;;;;6.60;3.43;;;8.80;99.90;;;;;;5233107;28;20467;-50
2022/10/07 01:00:39;;;;;;;5.57;3.60;;;8.80;99.90;;;;;;5245848;28;20614;-50
2022/10/07 01:03:14;;;;;;;12.63;3.80;;;8.80;99.90;;;;;;5264284;28;20451;-50
2022/10/07 01:05:44;;;;;;;13.10;3.80;;;8.80;99.90;;;;;;5262432;28;20960;-49
2022/10/07 01:08:16;;;;;;;5.50;3.50;;;8.80;99.90;;;;;;5261670;28;20470;-50
2022/10/07 01:11:20;;;;;;;12.93;3.40;;;8.80;99.90;;;;;;5242468;28;20259;-50
2022/10/07 01:14:19;;;;;;;14.43;4.00;;;8.80;99.90;;;;;;5244236;28;20443;-50
2022/10/07 01:17:01;;;;;;;8.63;4.20;;;8.80;99.90;;;;;;5262907;28;20432;-50
2022/10/07 01:20:09;;;;;;;6.07;3.67;;;8.70;99.90;;;;;;5268317;28;20435;-50
2022/10/07 01:22:40;;;;;;;3.63;3.23;;;8.70;99.90;;;;;;5262771;28;20486;-49
2022/10/07 01:25:40;;;;;;;4.13;3.37;;;8.80;99.90;;;;;;5265040;28;21013;-49
2022/10/07 01:28:18;;;;;;;6.53;3.87;;;8.70;99.90;;;;;;5240827;28;20229;-49
2022/10/07 01:30:55;;;;;;;8.63;3.50;;;8.60;99.90;;;;;;5260632;28;20768;-49
2022/10/07 01:33:30;;;;;;;12.47;3.73;;;8.60;99.90;;;;;;5265396;28;20558;-49
2022/10/07 01:36:09;;;;;;;5.77;2.70;;;8.60;99.90;;;;;;5242931;28;20428;-49
2022/10/07 01:38:44;;;;;;;14.80;3.80;;;8.50;99.90;;;;;;5255919;28;20490;-49
2022/10/07 01:41:18;;;;;;;9.13;3.30;;;8.50;99.90;;;;;;5226302;28;20439;-49
2022/10/07 01:43:52;;;;;;;4.37;3.30;;;8.60;99.90;;;;;;5243408;28;20465;-50
2022/10/07 01:46:25;;;;;;;12.77;3.33;;;8.50;99.90;;;;;;5262433;28;20464;-49
2022/10/07 01:48:56;;;;;;;3.10;2.87;;;8.50;99.90;;;;;;5242639;28;20478;-49
2022/10/07 01:51:32;;;;;;;3.07;2.83;;;8.50;99.90;;;;;;5248703;28;20547;-50
2022/10/07 01:54:07;;;;;;;11.80;6.00;;;8.40;99.90;;;;;;5262607;28;20435;-49
2022/10/07 01:57:04;;;;;;;5.00;3.33;;;8.40;99.90;;;;;;5244532;28;20506;-49
2022/10/07 02:00:05;;;;;;;4.27;3.00;;;8.40;99.90;;;;;;5256710;28;20440;-48
2022/10/07 02:02:53;;;;;;;9.87;3.10;;;8.40;99.90;;;;;;5246832;28;20448;-50
2022/10/07 02:05:50;;;;;;;5.03;3.23;;;8.40;99.90;;;;;;5256594;28;20450;-48
2022/10/07 02:08:39;;;;;;;6.30;3.30;;;8.40;99.90;;;;;;5258262;28;20555;-48
2022/10/07 02:11:26;;;;;;;4.13;2.73;;;8.30;99.90;;;;;;5259271;28;20431;-50
2022/10/07 02:14:17;;;;;;;5.70;3.20;;;8.30;99.90;;;;;;5242174;28;20467;-49
2022/10/07 02:17:04;;;;;;;15.77;3.93;;;8.30;99.90;;;;;;5259320;28;20928;-50
2022/10/07 02:19:39;;;;;;;15.17;4.00;;;8.30;99.90;;;;;;5261158;28;20424;-48
2022/10/07 02:22:12;;;;;;;5.40;3.23;;;8.30;99.90;;;;;;5266838;28;20796;-49
2022/10/07 02:24:46;;;;;;;8.50;3.87;;;8.30;99.90;;;;;;5233882;28;20412;-50
2022/10/07 02:27:20;;;;;;;6.50;3.00;;;8.30;99.90;;;;;;5251456;28;20470;-49
2022/10/07 02:29:57;;;;;;;12.37;4.43;;;8.30;99.90;;;;;;5250974;28;20431;-49
2022/10/07 02:32:29;;;;;;;10.20;4.10;;;8.30;99.90;;;;;;5268900;28;20494;-48
2022/10/07 02:35:12;;;;;;;14.93;4.17;;;8.30;99.90;;;;;;5249462;28;20431;-49
2022/10/07 02:37:43;;;;;;;7.37;4.37;;;8.30;99.90;;;;;;5263661;28;20488;-49
2022/10/07 02:40:14;;;;;;;9.13;4.17;;;8.40;99.90;;;;;;5261769;28;20436;-49
2022/10/07 02:43:07;;;;;;;7.50;3.53;;;8.30;99.90;;;;;;5266768;28;20475;-49
2022/10/07 02:45:51;;;;;;;10.47;4.20;;;8.30;99.90;;;;;;5244129;28;20520;-48
2022/10/07 02:48:29;;;;;;;9.50;4.27;;;8.30;99.90;;;;;;5248679;28;20463;-50
2022/10/07 02:51:05;;;;;;;14.43;3.90;;;8.30;99.90;;;;;;5246711;28;20520;-50
2022/10/07 02:53:37;;;;;;;6.63;3.47;;;8.20;99.90;;;;;;5246378;28;20517;-49
2022/10/07 02:56:08;;;;;;;5.27;3.37;;;8.20;99.90;;;;;;5260935;28;20435;-50
2022/10/07 02:58:44;;;;;;;5.17;3.27;;;8.20;99.90;;;;;;5248563;28;20965;-49
2022/10/07 03:01:21;;;;;;;8.43;3.70;;;8.20;99.90;;;;;;5248699;28;20219;-50
2022/10/07 03:03:51;;;;;;;10.23;3.57;;;8.20;99.90;;;;;;5264457;28;20520;-49
2022/10/07 03:06:23;;;;;;;10.83;4.00;;;8.20;99.90;;;;;;5245073;28;20490;-49
2022/10/07 03:08:56;;;;;;;6.40;3.67;;;8.20;99.90;;;;;;5266580;28;20220;-49
2022/10/07 03:11:27;;;;;;;9.43;3.80;;;8.20;99.90;;;;;;5260208;28;20423;-46
2022/10/07 03:13:58;;;;;;;4.13;3.40;;;8.20;99.90;;;;;;5266329;28;20468;-49
2022/10/07 03:16:28;;;;;;;8.93;2.87;;;8.20;99.90;;;;;;5251118;28;20174;-48
2022/10/07 03:18:59;;;;;;;13.90;3.87;;;8.20;99.90;;;;;;5264513;28;20192;-48
2022/10/07 03:21:31;;;;;;;14.60;4.20;;;8.10;99.90;;;;;;5266768;28;20197;-48
2022/10/07 03:24:03;;;;;;;8.27;4.03;;;8.10;99.90;;;;;;5238513;28;20174;-48
2022/10/07 03:26:34;;;;;;;9.60;4.50;;;8.10;99.90;;;;;;5242818;28;20537;-48
2022/10/07 03:29:07;;;;;;;16.80;4.53;;;8.10;99.90;;;;;;5245846;28;20847;-49
2022/10/07 03:31:38;;;;;;;3.73;3.30;;;8.00;99.90;;;;;;5248845;28;20194;-49
2022/10/07 03:34:09;;;;;;;22.70;4.60;;;8.00;99.90;;;;;;5246685;28;20427;-49
2022/10/07 03:36:40;;;;;;;10.13;4.40;;;8.00;99.90;;;;;;5250407;28;20983;-48
2022/10/07 03:39:11;;;;;;;10.80;4.40;;;8.00;99.90;;;;;;5260610;28;20738;-48
2022/10/07 03:41:41;;;;;;;5.40;4.20;;;8.00;99.90;;;;;;5250219;28;20494;-48
2022/10/07 03:44:13;;;;;;;7.77;3.97;;;8.00;99.90;;;;;;5272628;28;20181;-49
2022/10/07 03:46:47;;;;;;;17.33;5.30;;;7.90;99.90;;;;;;5265657;28;20200;-49
2022/10/07 03:49:19;;;;;;;5.00;4.50;;;7.90;99.90;;;;;;5260133;28;20551;-49
2022/10/07 03:51:49;;;;;;;13.23;4.53;;;7.90;99.90;;;;;;5250673;28;20985;-49
2022/10/07 03:54:20;;;;;;;6.10;4.83;;;7.80;99.90;;;;;;5250295;28;20432;-49
2022/10/07 03:56:51;;;;;;;9.00;5.40;;;7.80;99.90;;;;;;5265805;28;20205;-50
2022/10/07 03:59:22;;;;;;;16.60;5.27;;;7.80;99.90;;;;;;5264363;28;20286;-49
2022/10/07 04:01:52;;;;;;;14.20;4.03;;;7.80;99.90;;;;;;5256812;28;20539;-49
2022/10/07 04:04:23;;;;;;;8.33;4.30;;;7.80;99.90;;;;;;5245214;28;20190;-48
2022/10/07 04:06:53;;;;;;;8.17;4.60;;;7.80;99.90;;;;;;5265326;28;20178;-48
2022/10/07 04:09:24;;;;;;;7.17;4.50;;;7.80;99.90;;;;;;5227598;28;20675;-49
2022/10/07 04:11:55;;;;;;;13.37;4.63;;;7.70;99.90;;;;;;5260470;28;20190;-51
2022/10/07 04:14:25;;;;;;;9.93;4.20;;;7.80;99.90;;;;;;5261007;28;20189;-49
2022/10/07 04:16:56;;;;;;;9.93;4.07;;;7.80;99.90;;;;;;5251717;28;20439;-49
2022/10/07 04:19:26;;;;;;;7.70;4.00;;;7.70;99.90;;;;;;5250057;28;20181;-52
2022/10/07 04:21:57;;;;;;;9.20;4.17;;;7.80;99.90;;;;;;5251557;28;20654;-49
2022/10/07 04:24:27;;;;;;;7.73;4.43;;;7.80;99.90;;;;;;5249811;28;20180;-50
2022/10/07 04:26:58;;;;;;;24.50;5.27;;;7.70;99.90;;;;;;5262193;28;20685;-50
2022/10/07 04:29:29;;;;;;;16.33;4.57;;;7.70;99.90;;;;;;5265534;28;20240;-49
2022/10/07 04:31:59;;;;;;;7.03;5.13;;;7.70;99.90;;;;;;5259789;28;20201;-50
2022/10/07 04:34:30;;;;;;;7.57;4.30;;;7.70;99.90;;;;;;5247715;28;20185;-50
2022/10/07 04:37:00;;;;;;;7.03;4.70;;;7.70;99.90;;;;;;5240157;28;20185;-49
2022/10/07 04:39:31;;;;;;;13.37;5.00;;;7.60;99.90;;;;;;5246893;28;20170;-50
2022/10/07 04:42:01;;;;;;;10.87;5.37;;;7.60;99.90;;;;;;5227883;28;20217;-50
2022/10/07 04:44:32;;;;;;;10.97;4.13;;;7.60;99.90;;;;;;5261873;28;20170;-49
2022/10/07 04:47:05;;;;;;;9.50;4.40;;;7.60;99.90;;;;;;5265496;28;20189;-50
2022/10/07 04:49:35;;;;;;;9.63;4.70;;;7.60;99.90;;;;;;5246407;28;20738;-49
2022/10/07 04:52:06;;;;;;;9.03;4.20;;;7.60;99.90;;;;;;5256698;28;20455;-48
2022/10/07 04:54:38;;;;;;;11.83;4.70;;;7.60;99.90;;;;;;5261291;28;20185;-49
2022/10/07 04:57:11;;;;;;;30.07;4.80;;;7.60;99.90;;;;;;5261273;28;20186;-49
2022/10/07 04:59:41;;;;;;;6.20;4.60;;;7.60;99.90;;;;;;5255500;28;20428;-51
2022/10/07 05:02:12;;;;;;;11.30;5.23;;;7.50;99.90;;;;;;5256638;28;20471;-49
2022/10/07 05:04:43;;;;;;;17.00;4.60;;;7.50;99.90;;;;;;5241353;28;20222;-50
2022/10/07 05:07:15;;;;;;;10.13;4.90;;;7.50;99.90;;;;;;5261232;28;20178;-50
2022/10/07 05:09:47;;;;;;;17.03;4.77;;;7.50;99.90;;;;;;5242791;28;20441;-49
2022/10/07 05:12:18;;;;;;;16.47;4.80;;;7.50;99.90;;;;;;5265171;28;20468;-48
2022/10/07 05:14:48;;;;;;;12.43;5.00;;;7.50;99.90;;;;;;5260329;28;20462;-50
2022/10/07 05:17:20;;;;;;;7.90;4.47;;;7.50;99.90;;;;;;5260140;28;20438;-47
2022/10/07 05:19:50;;;;;;;9.00;4.37;;;7.50;99.90;;;;;;5248328;28;20605;-50
2022/10/07 05:22:21;;;;;;;12.17;5.20;;;7.50;99.90;;;;;;5248781;28;20475;-48
2022/10/07 05:24:52;;;;;;;9.27;4.90;;;7.60;99.90;;;;;;5244485;28;20194;-47
2022/10/07 05:27:22;;;;;;;7.80;4.83;;;7.50;99.90;;;;;;5246819;28;20174;-49
2022/10/07 05:29:53;;;;;;;14.10;5.10;;;7.60;99.90;;;;;;5263980;28;20192;-51
2022/10/07 05:32:24;;;;;;;12.30;4.40;;;7.60;99.90;;;;;;5249151;28;20202;-50
2022/10/07 05:34:54;;;;;;;10.27;4.83;;;7.60;99.90;;;;;;5263840;28;20183;-51
2022/10/07 05:37:25;;;;;;;7.30;4.33;;;7.60;99.90;;;;;;5248779;28;20512;-50
2022/10/07 05:39:55;;;;;;;8.60;4.17;;;7.60;99.90;;;;;;5261200;28;20185;-51
2022/10/07 05:42:26;;;;;;;15.83;4.43;;;7.70;99.90;;;;;;5258274;28;20209;-51
2022/10/07 05:44:56;;;;;;;10.83;5.17;;;7.70;99.90;;;;;;5249330;28;20342;-48
2022/10/07 05:47:27;;;;;;;15.83;5.53;;;7.80;99.90;;;;;;5263089;28;20190;-50
2022/10/07 05:49:58;;;;;;;6.83;5.10;;;8.00;99.90;;;;;;5242514;28;20182;-50
2022/10/07 05:52:29;;;;;;;12.13;4.80;;;8.00;99.90;;;;;;5242067;28;20695;-51
2022/10/07 05:55:00;;;;;;;9.97;5.60;;;8.00;99.90;;;;;;5259763;28;20470;-51
2022/10/07 05:57:31;;;;;;;7.80;4.47;;;8.10;99.90;;;;;;5255725;28;20186;-50
2022/10/07 06:00:03;;;;;;;5.87;4.57;;;8.20;99.90;;;;;;5244531;28;20423;-51
2022/10/07 06:02:34;;;;;;;10.43;4.93;;;8.40;99.90;;;;;;5259677;28;20601;-49
2022/10/07 06:05:05;;;;;;;9.03;4.70;;;8.30;99.90;;;;;;5259149;28;20439;-50
2022/10/07 06:07:36;;;;;;;14.00;5.77;;;8.40;99.90;;;;;;5260921;28;20435;-51
2022/10/07 06:13:08;;;;;;;20.30;4.57;;;8.70;99.90;;;;;;5263597;28;20263;-50
2022/10/07 06:15:39;;;;;;;8.37;4.30;;;8.70;99.90;;;;;;5245470;28;20852;-51
2022/10/07 06:18:09;;;;;;;10.00;3.83;;;9.00;99.90;;;;;;5261362;28;20477;-49
2022/10/07 06:20:40;;;;;;;10.47;4.80;;;10.20;99.90;;;;;;5249829;28;20185;-50
2022/10/07 06:23:10;;;;;;;12.23;4.07;;;12.40;99.90;;;;;;5258364;28;20213;-51
2022/10/07 06:25:42;;;;;;;12.77;5.10;;;14.80;99.90;;;;;;5261863;28;20174;-50
2022/10/07 06:28:16;;;;;;;9.93;4.00;;;16.70;95.30;;;;;;5265999;28;20201;-52
2022/10/07 06:30:47;;;;;;;3.97;3.50;;;18.10;79.60;;;;;;5235547;28;20439;-50
2022/10/07 06:33:18;;;;;;;15.87;4.43;;;19.20;69.70;;;;;;5258247;28;20443;-51
2022/10/07 06:35:48;;;;;;;6.83;3.17;;;20.10;61.20;;;;;;5254164;28;20436;-50
2022/10/07 06:38:19;;;;;;;8.43;3.83;;;20.90;57.20;;;;;;5258778;28;20431;-52
2022/10/07 06:41:00;;;;;;;10.13;3.77;;;21.50;52.40;;;;;;5262464;28;20170;-50
2022/10/07 06:43:33;;;;;;;5.00;3.73;;;21.60;51.70;;;;;;5207894;28;1478667;-51
2022/10/07 06:46:05;;;;;;;7.97;4.03;;;21.90;50.20;;;;;;5264906;28;20269;-51
2022/10/07 06:48:39;;;;;;;13.63;3.80;;;22.20;48.50;;;;;;5250171;28;20447;-50
2022/10/07 06:51:17;;;;;;;7.63;4.20;;;22.60;47.10;;;;;;5264353;28;20949;-52
2022/10/07 06:53:53;;;;;;;6.87;4.17;;;22.50;46.40;;;;;;5260592;28;20519;-50
2022/10/07 06:56:24;;;;;;;7.00;3.90;;;23.00;46.60;;;;;;5263349;28;20435;-51
2022/10/07 06:58:54;;;;;;;15.13;4.70;;;23.50;45.50;;;;;;5242745;28;20444;-51
2022/10/07 07:01:25;;;;;;;8.33;3.93;;;23.70;43.60;;;;;;5256964;28;20465;-48
2022/10/07 07:03:56;;;;;;;4.17;3.77;;;23.20;43.50;;;;;;5258951;28;20193;-50
2022/10/07 07:06:26;;;;;;;9.53;4.27;;;22.90;44.50;;;;;;5242708;28;20189;-49
2022/10/07 07:09:04;;;;;;;6.00;3.53;;;23.50;44.00;;;;;;5242083;28;20212;-50
2022/10/07 07:11:40;;;;;;;12.00;4.10;;;23.90;43.20;;;;;;5264043;28;20197;-51
2022/10/07 07:14:11;;;;;;;8.67;4.00;;;24.00;41.90;;;;;;5246015;28;20423;-50
2022/10/07 07:16:41;;;;;;;6.90;3.90;;;24.30;41.70;;;;;;5255568;28;20428;-52
2022/10/07 07:19:13;;;;;;;4.90;4.33;;;24.20;41.30;;;;;;5261517;28;20188;-54
2022/10/07 07:21:43;;;;;;;4.63;4.33;;;24.40;41.60;;;;;;5259456;28;20194;-50
2022/10/07 07:24:14;;;;;;;7.13;5.03;;;24.70;41.10;;;;;;5266412;28;20834;-51
2022/10/07 07:26:45;;;;;;;4.43;3.70;;;25.10;40.60;;;;;;5260172;28;20212;-52
2022/10/07 07:29:16;;;;;;;9.17;5.43;;;25.30;40.40;;;;;;5260304;28;20684;-49
2022/10/07 07:31:48;;;;;;;13.10;6.10;;;24.90;40.10;;;;;;5246275;28;20200;-51
2022/10/07 07:34:19;;;;;;;13.40;6.17;;;24.30;41.40;;;;;;5246354;28;20169;-50
2022/10/07 07:36:52;;;;;;;20.53;9.17;;;22.90;42.60;;;;;;5267457;28;20434;-50
2022/10/07 07:39:23;;;;;;;21.20;7.27;;;20.70;46.50;;;;;;5266272;28;20186;-50
2022/10/07 07:41:53;;;;;;;16.80;9.17;;;18.70;50.40;;;;;;5248816;28;20451;-51
2022/10/07 07:44:24;;;;;;;12.70;7.87;;;17.10;53.60;;;;;;5270097;28;20243;-52
2022/10/07 07:46:55;;;;;;;11.83;7.70;;;15.90;56.90;;;;;;5246815;28;20192;-50
2022/10/07 07:49:30;;;;;;;15.50;9.20;;;15.10;60.10;;;;;;5263482;28;20217;-51
2022/10/07 07:52:02;;;;;;;12.93;6.20;;;14.50;63.90;;;;;;5252158;28;20262;-51
2022/10/07 07:54:36;;;;;;;7.40;5.83;;;13.90;69.00;;;;;;5240961;28;20451;-51
2022/10/07 07:57:07;;;;;;;12.27;5.07;;;13.60;77.10;;;;;;5264443;28;20519;-51
2022/10/07 07:59:38;;;;;;;10.70;5.97;;;13.40;83.50;;;;;;5257206;28;20466;-51
2022/10/07 08:02:11;;;;;;;10.43;4.77;;;13.30;90.20;;;;;;5249604;28;20459;-50
2022/10/07 08:04:41;;;;;;;10.43;5.47;;;13.20;92.80;;;;;;5267792;28;20423;-50
2022/10/07 08:07:12;;;;;;;5.67;4.17;;;13.10;94.10;;;;;;5274139;28;20424;-51
2022/10/07 08:09:42;;;;;;;9.03;5.00;;;13.20;95.10;;;;;;5237178;28;20657;-50
2022/10/07 08:12:13;;;;;;;9.33;4.63;;;13.00;96.30;;;;;;5253890;28;20197;-52
2022/10/07 08:14:44;;;;;;;7.13;4.07;;;13.00;97.40;;;;;;5268585;28;20177;-51
2022/10/07 08:17:14;;;;;;;9.67;4.40;;;13.20;98.20;;;;;;5256554;28;20173;-51
2022/10/07 08:19:45;;;;;;;11.50;4.80;;;13.30;97.90;;;;;;5235700;28;20208;-50
2022/10/07 08:22:16;;;;;;;8.30;4.77;;;13.40;98.10;;;;;;5266736;28;20209;-50
2022/10/07 08:24:47;;;;;;;4.33;3.83;;;13.40;98.10;;;;;;5266330;28;20547;-53
2022/10/07 08:27:19;;;;;;;12.83;4.30;;;13.40;98.20;;;;;;5264407;28;20278;-51
2022/10/07 08:29:50;;;;;;;7.10;3.80;;;13.50;98.50;;;;;;5247603;28;20577;-51
2022/10/07 08:32:20;;;;;;;6.80;3.90;;;13.40;99.20;;;;;;5268775;28;20607;-52
2022/10/07 08:34:51;;;;;;;16.83;6.00;;;13.60;99.30;;;;;;5253514;28;20196;-49
2022/10/07 08:37:21;;;;;;;6.47;4.00;;;13.70;99.00;;;;;;5248515;28;20210;-51
2022/10/07 08:39:52;;;;;;;10.20;5.30;;;14.00;98.00;;;;;;5263280;28;20265;-51
2022/10/07 08:42:38;;;;;;;16.73;5.77;;;14.00;97.90;;;;;;5252722;28;20553;-51
2022/10/07 08:45:18;;;;;;;15.33;6.10;;;14.10;97.60;;;;;;5244057;28;20182;-52
2022/10/07 08:47:50;;;;;;;20.70;7.70;;;14.30;97.00;;;;;;5260533;28;20967;-48
2022/10/07 08:50:25;;;;;;;9.73;5.90;;;14.40;96.70;;;;;;5248010;28;20486;-52
2022/10/07 08:53:11;;;;;;;16.23;7.23;;;14.50;96.30;;;;;;5264326;28;20439;-50
2022/10/07 08:55:53;;;;;;;8.47;5.90;;;14.70;95.70;;;;;;5267190;28;20427;-52
2022/10/07 08:58:42;;;;;;;5.83;4.10;;;14.70;95.00;;;;;;5266451;28;20479;-52
2022/10/07 09:01:29;;;;;;;7.30;3.47;;;14.80;94.30;;;;;;5267685;28;20493;-49
2022/10/07 09:04:22;;;;;;;8.50;4.77;;;14.70;94.00;;;;;;5264676;28;20432;-51
2022/10/07 09:07:01;;;;;;;6.60;3.03;;;14.80;94.20;;;;;;5248546;28;20504;-52
2022/10/07 09:09:58;;;;;;;7.07;3.60;;;14.90;93.70;;;;;;5251316;28;21009;-52
2022/10/07 09:12:50;;;;;;;8.03;3.57;;;14.90;93.70;;;;;;5251572;28;20465;-51
2022/10/07 09:15:32;;;;;;;5.73;3.10;;;15.10;93.30;;;;;;5254097;28;20547;-51
2022/10/07 09:18:24;;;;;;;5.93;3.00;;;15.20;92.90;;;;;;5264675;28;20454;-51
2022/10/07 09:20:55;;;;;;;10.37;3.20;;;15.20;93.40;;;;;;5245525;28;20437;-50
2022/10/07 09:23:32;;;;;;;6.67;3.23;;;15.30;93.00;;;;;;5270843;28;20455;-51
2022/10/07 09:26:13;;;;;;;5.33;3.03;;;15.30;92.90;;;;;;5249307;28;20428;-52
2022/10/07 09:28:44;;;;;;;2.77;2.20;;;15.40;92.10;;;;;;5247119;28;20460;-50
2022/10/07 09:31:15;;;;;;;13.87;4.10;;;15.40;92.20;;;;;;5249179;28;20489;-52
2022/10/07 09:33:49;;;;;;;8.20;4.87;;;15.40;91.60;;;;;;5270998;28;20188;-51
2022/10/07 09:36:20;;;;;;;9.10;5.43;;;15.60;90.50;;;;;;5266455;28;20510;-50
2022/10/07 09:38:52;;;;;;;11.47;5.20;;;15.90;88.30;;;;;;5249732;28;21042;-50
2022/10/07 09:41:34;;;;;;;12.50;5.70;;;16.00;86.70;;;;;;5246697;28;20948;-51
2022/10/07 09:44:22;;;;;;;6.53;4.60;;;16.10;85.00;;;;;;5264619;28;20510;-49
2022/10/07 09:46:56;;;;;;;9.67;4.30;;;16.00;85.20;;;;;;5251627;28;20485;-49
2022/10/07 09:49:27;;;;;;;6.90;2.67;;;15.90;86.80;;;;;;5259812;28;20516;-51
2022/10/07 09:52:02;;;;;;;6.10;2.67;;;15.90;86.90;;;;;;5249589;28;20459;-49
2022/10/07 09:54:34;;;;;;;5.50;3.23;;;15.90;87.10;;;;;;5251548;28;20264;-50
2022/10/07 09:57:19;;;;;;;3.13;2.30;;;15.90;86.60;;;;;;5239712;28;20421;-50
2022/10/07 09:59:49;;;;;;;2.33;2.13;;;16.00;85.60;;;;;;5251406;28;20919;-48
2022/10/07 10:02:24;;;;;;;5.20;2.50;;;16.10;85.00;;;;;;5249223;28;20463;-50
2022/10/07 10:04:56;;;;;;;5.10;2.47;;;16.20;82.90;;;;;;5272190;28;20242;-50
2022/10/07 10:07:28;;;;;;;9.33;3.63;;;16.20;83.30;;;;;;5249984;28;20938;-49
2022/10/07 10:10:29;;;;;;;3.47;2.10;;;16.20;83.20;;;;;;5245316;28;20435;-52
2022/10/07 10:13:03;;;;;;;3.07;2.10;;;16.30;81.20;;;;;;5246597;28;20841;-50
2022/10/07 10:15:39;;;;;;;8.87;2.23;;;16.50;80.00;;;;;;5256125;28;20819;-49
2022/10/07 10:18:30;;;;;;;4.93;1.97;;;16.40;79.80;;;;;;5244593;28;20915;-52
2022/10/07 10:21:38;;;;;;;3.17;2.10;;;16.40;80.30;;;;;;5255622;28;20514;-52
2022/10/07 10:24:14;;;;;;;4.77;2.93;;;16.50;79.60;;;;;;5255236;28;20466;-49
2022/10/07 10:27:08;;;;;;;4.47;2.40;;;16.50;78.60;;;;;;5259388;28;20444;-50
2022/10/07 10:30:01;;;;;;;2.30;2.07;;;16.50;78.70;;;;;;5256361;28;20456;-50
2022/10/07 10:32:44;;;;;;;3.27;2.10;;;16.60;76.70;;;;;;5242659;28;20535;-49
2022/10/07 10:35:41;;;;;;;2.73;1.97;;;16.70;75.70;;;;;;5248014;28;20469;-50
2022/10/07 10:38:28;;;;;;;5.43;3.17;;;16.70;76.30;;;;;;5238753;28;20432;-50
2022/10/07 10:41:21;;;;;;;4.00;2.50;;;16.70;74.60;;;;;;5254857;28;20435;-49
2022/10/07 10:44:19;;;;;;;5.73;3.50;;;16.70;74.80;;;;;;5247007;28;20450;-50
2022/10/07 10:46:54;;;;;;;5.70;2.83;;;16.70;73.50;;;;;;5252629;28;20943;-52
2022/10/07 10:49:37;;;;;;;2.93;2.73;;;16.70;72.70;;;;;;5256180;28;20495;-52
2022/10/07 10:52:31;;;;;;;3.53;2.23;;;17.00;72.90;;;;;;5243662;28;20545;-50
2022/10/07 10:55:22;;;;;;;10.83;2.60;;;16.90;72.40;;;;;;5267699;28;20939;-49
2022/10/07 10:58:05;;;;;;;2.17;1.97;;;16.80;72.20;;;;;;5259785;28;20435;-51
2022/10/07 11:01:08;;;;;;;4.83;2.40;;;16.80;72.30;;;;;;5264964;28;20435;-49
2022/10/07 11:03:53;;;;;;;14.20;3.83;;;16.80;73.00;;;;;;5270993;28;20486;-50
2022/10/07 11:06:27;;;;;;;6.27;2.50;;;16.80;72.50;;;;;;5265013;28;20928;-51
2022/10/07 11:09:02;;;;;;;7.40;3.37;;;16.90;71.70;;;;;;5258278;28;20559;-50
2022/10/07 11:11:34;;;;;;;2.17;1.97;;;17.00;72.40;;;;;;5250584;28;20458;-50
2022/10/07 11:14:12;;;;;;;5.40;2.13;;;17.20;68.60;;;;;;5252970;28;20411;-51
2022/10/07 11:16:54;;;;;;;5.60;2.10;;;17.30;67.60;;;;;;5270652;28;20454;-50
2022/10/07 11:19:34;;;;;;;1.63;1.53;;;17.30;69.00;;;;;;5269041;28;20428;-52
2022/10/07 11:22:12;;;;;;;3.37;2.57;;;17.30;68.70;;;;;;5251561;28;20536;-50
2022/10/07 11:24:55;;;;;;;2.90;2.00;;;17.30;68.40;;;;;;5266652;28;20500;-50
2022/10/07 11:27:30;;;;;;;4.47;3.00;;;17.30;68.30;;;;;;5268454;28;21037;-51
2022/10/07 11:30:22;;;;;;;2.10;1.97;;;17.30;68.20;;;;;;5263862;28;20498;-61
2022/10/07 11:32:54;;;;;;;4.47;2.27;;;17.30;68.00;;;;;;5251441;28;20493;-50
2022/10/07 11:35:25;;;;;;;3.63;2.30;;;17.30;67.50;;;;;;5275987;28;20916;-50
2022/10/07 11:38:13;;;;;;;7.93;2.47;;;17.40;66.80;;;;;;5249884;28;20462;-50
2022/10/07 11:40:56;;;;;;;1.50;1.50;;;17.40;66.20;;;;;;5248386;28;20512;-50
2022/10/07 11:43:43;;;;;;;3.13;1.70;;;17.40;64.60;;;;;;5251092;28;20493;-50
2022/10/07 11:46:49;;;;;;;2.20;1.57;;;17.40;62.20;;;;;;5261258;28;20462;-52
2022/10/07 11:49:39;;;;;;;4.83;3.23;;;17.60;62.90;;;;;;5199201;28;20545;-52
2022/10/07 11:52:25;;;;;;;4.97;1.90;;;17.50;62.30;;;;;;5265919;28;20459;-51
2022/10/07 11:55:04;;;;;;;2.00;1.60;;;17.50;62.30;;;;;;5268571;28;20423;-48
2022/10/07 11:57:42;;;;;;;7.63;1.80;;;17.60;62.90;;;;;;5264596;28;20438;-51
2022/10/07 12:00:12;;;;;;;4.73;2.00;;;17.50;62.00;;;;;;5264502;28;20434;-50
2022/10/07 12:02:45;;;;;;;1.20;1.10;;;17.50;61.60;;;;;;5249395;28;20458;-48
2022/10/07 12:05:34;;;;;;;2.60;2.27;;;17.60;60.90;;;;;;5245030;28;20178;-48
2022/10/07 12:08:26;;;;;;;3.50;2.20;;;17.60;61.50;;;;;;5257590;28;20473;-48
2022/10/07 12:11:12;;;;;;;5.80;2.63;;;17.60;61.20;;;;;;5250864;28;20444;-51
2022/10/07 12:13:47;;;;;;;7.80;2.80;;;17.70;62.40;;;;;;5253508;28;21193;-49
2022/10/07 12:16:51;;;;;;;3.63;1.93;;;17.80;61.50;;;;;;5262468;28;20435;-49
2022/10/07 12:19:22;;;;;;;12.60;5.07;;;17.70;61.10;;;;;;5259120;28;20452;-50
2022/10/07 12:21:58;;;;;;;8.50;2.97;;;17.70;61.70;;;;;;5242389;28;20508;-49
2022/10/07 12:24:31;;;;;;;2.77;2.40;;;17.70;62.40;;;;;;5262534;28;20182;-50
2022/10/07 12:27:23;;;;;;;7.03;3.47;;;17.70;62.00;;;;;;5248106;28;20440;-50
2022/10/07 12:29:58;;;;;;;1.97;1.70;;;17.70;62.20;;;;;;5257266;28;20955;-49
2022/10/07 12:32:51;;;;;;;3.03;2.10;;;17.70;60.90;;;;;;5254589;28;20447;-49
2022/10/07 12:35:33;;;;;;;6.23;2.27;;;17.60;61.10;;;;;;5272619;28;20422;-50
2022/10/07 12:38:25;;;;;;;7.07;2.33;;;17.80;60.50;;;;;;5273027;28;20426;-51
2022/10/07 12:41:02;;;;;;;7.70;2.93;;;17.90;59.60;;;;;;5270895;28;20556;-50
2022/10/07 12:43:35;;;;;;;3.90;1.97;;;17.90;59.80;;;;;;5263862;28;20848;-51
2022/10/07 12:46:13;;;;;;;5.00;3.10;;;18.00;59.60;;;;;;5246232;28;20524;-50
2022/10/07 12:48:59;;;;;;;6.17;2.10;;;17.90;62.00;;;;;;5261462;28;20467;-50
2022/10/07 12:51:37;;;;;;;5.70;1.97;;;17.90;61.50;;;;;;5257694;28;20463;-51
2022/10/07 12:54:19;;;;;;;6.20;2.10;;;17.90;60.90;;;;;;5253010;28;20955;-55
2022/10/07 12:56:49;;;;;;;3.13;1.80;;;18.10;59.00;;;;;;5243271;28;20435;-50
2022/10/07 12:59:47;;;;;;;10.00;2.00;;;18.10;57.80;;;;;;5255161;28;20522;-50
2022/10/07 13:02:33;;;;;;;3.00;1.77;;;18.00;58.70;;;;;;5272300;28;20223;-49
2022/10/07 13:05:38;;;;;;;2.50;1.50;;;17.90;59.10;;;;;;5260478;28;20934;-49
2022/10/07 13:08:37;;;;;;;2.93;1.40;;;17.80;58.30;;;;;;5266922;28;21102;-49
2022/10/07 13:11:43;;;;;;;3.23;1.57;;;17.80;58.00;;;;;;5260792;28;20444;-48
2022/10/07 13:14:52;;;;;;;4.10;1.90;;;17.70;58.60;;;;;;5265424;28;20440;-47
2022/10/07 13:17:50;;;;;;;6.17;1.80;;;17.60;59.30;;;;;;5250118;28;20435;-47
2022/10/07 13:20:35;;;;;;;1.70;1.60;;;17.60;59.70;;;;;;5255126;28;20431;-48
2022/10/07 13:23:18;;;;;;;2.13;1.80;;;17.80;58.90;;;;;;5257734;28;20460;-50
2022/10/07 13:25:53;;;;;;;8.13;2.10;;;18.00;56.80;;;;;;5258019;28;20512;-50
2022/10/07 13:28:43;;;;;;;4.00;1.63;;;18.20;55.90;;;;;;5236793;28;20498;-51
2022/10/07 13:31:16;;;;;;;3.10;1.90;;;18.10;55.80;;;;;;5241415;28;20455;-49
2022/10/07 13:33:49;;;;;;;1.93;1.40;;;18.00;56.30;;;;;;5240842;28;20424;-52
2022/10/07 13:36:30;;;;;;;3.00;1.47;;;17.90;56.60;;;;;;5258123;28;20827;-49
2022/10/07 13:39:19;;;;;;;3.30;2.70;;;17.80;55.10;;;;;;5258894;28;20448;-48
2022/10/07 13:41:55;;;;;;;3.40;2.07;;;17.80;55.90;;;;;;5266460;28;20982;-49